createdAt,value
2022-11-26T00:02:30.083Z,15.80
2022-11-26T00:04:59.755Z,14.03
2022-11-26T00:07:29.771Z,14.20
2022-11-26T00:09:58.508Z,15.30
2022-11-26T00:12:32.996Z,13.60
2022-11-26T00:15:10.469Z,15.37
2022-11-26T00:17:37.211Z,14.00
2022-11-26T00:20:04.265Z,15.43
2022-11-26T00:22:33.338Z,16.83
2022-11-26T00:25:00.054Z,13.63
2022-11-26T00:27:27.712Z,17.13
2022-11-26T00:29:55.436Z,16.10
2022-11-26T00:32:24.718Z,14.57
2022-11-26T00:34:51.994Z,13.17
2022-11-26T00:37:28.340Z,15.17
2022-11-26T00:39:57.080Z,15.13
2022-11-26T00:42:24.107Z,15.13
2022-11-26T00:44:51.093Z,13.07
2022-11-26T00:47:17.892Z,13.97
2022-11-26T00:49:44.623Z,13.87
2022-11-26T00:52:35.665Z,14.37
2022-11-26T00:55:19.280Z,15.97
2022-11-26T00:57:46.045Z,15.57
2022-11-26T01:00:17.901Z,17.13
2022-11-26T01:02:45.382Z,15.43
2022-11-26T01:05:12.648Z,15.60
2022-11-26T01:07:41.013Z,16.03
2022-11-26T01:10:25.653Z,14.93
2022-11-26T01:12:53.334Z,15.40
2022-11-26T01:15:22.191Z,15.23
2022-11-26T01:17:50.050Z,14.87
2022-11-26T01:20:29.480Z,14.10
2022-11-26T01:22:57.888Z,14.43
2022-11-26T01:25:26.575Z,14.80
2022-11-26T01:27:53.823Z,15.77
2022-11-26T01:30:27.258Z,15.50
2022-11-26T01:32:54.006Z,15.07
2022-11-26T01:35:21.481Z,16.87
2022-11-26T01:37:49.358Z,16.03
2022-11-26T01:40:25.302Z,16.63
2022-11-26T01:43:15.723Z,16.03
2022-11-26T01:45:42.709Z,16.70
2022-11-26T01:48:24.087Z,17.60
2022-11-26T01:51:19.038Z,17.57
2022-11-26T01:53:59.555Z,16.77
2022-11-26T01:56:30.737Z,16.30
2022-11-26T01:59:10.490Z,17.33
2022-11-26T02:01:37.365Z,17.97
2022-11-26T02:04:19.087Z,17.93
2022-11-26T02:06:48.853Z,16.30
2022-11-26T02:09:16.542Z,18.07
2022-11-26T02:11:44.491Z,19.03
2022-11-26T02:14:39.051Z,19.83
2022-11-26T02:17:19.468Z,21.00
2022-11-26T02:20:01.176Z,19.40
2022-11-26T02:22:37.032Z,19.73
2022-11-26T02:25:22.346Z,18.63
2022-11-26T02:27:49.172Z,18.93
2022-11-26T02:30:17.743Z,18.40
2022-11-26T02:33:12.500Z,18.90
2022-11-26T02:35:51.912Z,19.30
2022-11-26T02:38:20.605Z,18.00
2022-11-26T02:40:47.891Z,18.87
2022-11-26T02:43:16.699Z,17.10
2022-11-26T02:45:48.785Z,18.13
2022-11-26T02:48:22.456Z,17.30
2022-11-26T02:50:57.325Z,16.90
2022-11-26T02:53:28.222Z,17.57
2022-11-26T02:56:03.522Z,17.10
2022-11-26T02:58:32.148Z,17.27
2022-11-26T03:01:02.982Z,16.17
2022-11-26T03:03:34.493Z,15.73
2022-11-26T03:06:09.564Z,14.50
2022-11-26T03:08:37.725Z,13.87
2022-11-26T03:11:05.132Z,13.73
2022-11-26T03:13:32.228Z,14.33
2022-11-26T03:15:59.031Z,13.90
2022-11-26T03:18:26.042Z,13.83
2022-11-26T03:20:53.090Z,14.33
2022-11-26T03:23:20.192Z,13.90
2022-11-26T03:25:47.035Z,13.47
2022-11-26T03:28:14.234Z,13.13
2022-11-26T03:30:40.969Z,11.27
2022-11-26T03:33:07.714Z,11.80
2022-11-26T03:35:34.518Z,11.23
2022-11-26T03:38:01.396Z,11.07
2022-11-26T03:40:28.114Z,11.53
2022-11-26T03:42:54.855Z,10.70
2022-11-26T03:45:21.669Z,11.00
2022-11-26T03:47:48.583Z,10.97
2022-11-26T03:50:15.420Z,11.80
2022-11-26T03:52:42.190Z,11.10
2022-11-26T03:55:09.617Z,11.07
2022-11-26T03:57:36.712Z,13.27
2022-11-26T04:00:06.676Z,12.40
2022-11-26T04:02:33.467Z,10.73
2022-11-26T04:05:00.327Z,11.47
2022-11-26T04:07:27.147Z,12.47
2022-11-26T04:09:53.900Z,12.00
2022-11-26T04:12:20.633Z,12.00
2022-11-26T04:14:47.384Z,11.40
2022-11-26T04:17:14.091Z,12.03
2022-11-26T04:19:40.919Z,11.87
2022-11-26T04:22:07.653Z,11.37
2022-11-26T04:24:34.421Z,12.80
2022-11-26T04:27:01.193Z,12.80
2022-11-26T04:29:28.329Z,13.90
2022-11-26T04:31:55.354Z,14.37
2022-11-26T04:34:22.239Z,15.93
2022-11-26T04:36:49.128Z,16.57
2022-11-26T04:39:16.398Z,16.00
2022-11-26T04:41:43.180Z,16.17
2022-11-26T04:44:09.927Z,15.70
2022-11-26T04:46:36.696Z,16.63
2022-11-26T04:49:03.636Z,16.23
2022-11-26T04:51:30.431Z,15.50
2022-11-26T04:54:00.456Z,16.77
2022-11-26T04:56:29.673Z,17.03
2022-11-26T04:58:56.838Z,18.30
2022-11-26T05:01:23.640Z,16.60
2022-11-26T05:03:50.849Z,17.43
2022-11-26T05:06:17.703Z,16.13
2022-11-26T05:08:44.463Z,15.73
2022-11-26T05:11:11.245Z,16.20
2022-11-26T05:13:37.974Z,16.80
2022-11-26T05:16:05.079Z,16.47
2022-11-26T05:18:31.902Z,15.77
2022-11-26T05:20:58.755Z,16.40
2022-11-26T05:23:25.495Z,16.80
2022-11-26T05:25:52.273Z,15.80
2022-11-26T05:28:19.076Z,17.57
2022-11-26T05:30:45.847Z,16.67
2022-11-26T05:33:12.574Z,16.97
2022-11-26T05:35:39.819Z,16.80
2022-11-26T05:38:06.868Z,17.00
2022-11-26T05:40:33.702Z,17.50
2022-11-26T05:43:00.474Z,17.17
2022-11-26T05:45:27.546Z,16.23
2022-11-26T05:47:54.456Z,18.47
2022-11-26T05:50:21.206Z,16.40
2022-11-26T05:52:47.946Z,17.00
2022-11-26T05:55:16.447Z,16.93
2022-11-26T05:57:43.202Z,16.43
2022-11-26T06:00:10.650Z,17.00
2022-11-26T06:02:37.940Z,16.57
2022-11-26T06:05:05.214Z,16.27
2022-11-26T06:07:32.687Z,16.60
2022-11-26T06:09:59.556Z,15.77
2022-11-26T06:12:27.039Z,15.87
2022-11-26T06:14:53.861Z,16.40
2022-11-26T06:17:21.013Z,17.63
2022-11-26T06:19:48.020Z,17.27
2022-11-26T06:22:15.040Z,17.80
2022-11-26T06:24:42.298Z,16.73
2022-11-26T06:27:09.106Z,17.77
2022-11-26T06:29:35.980Z,16.47
2022-11-26T06:32:02.720Z,16.57
2022-11-26T06:34:29.470Z,15.97
2022-11-26T06:36:56.385Z,16.27
2022-11-26T06:39:23.217Z,16.33
2022-11-26T06:41:49.996Z,17.93
2022-11-26T06:44:16.754Z,20.87
2022-11-26T06:46:43.524Z,18.40
2022-11-26T06:49:10.448Z,19.13
2022-11-26T06:51:37.281Z,19.70
2022-11-26T06:54:04.262Z,21.03
2022-11-26T06:56:30.971Z,22.53
2022-11-26T06:58:57.949Z,21.37
2022-11-26T07:01:26.687Z,23.67
2022-11-26T07:03:53.861Z,21.20
2022-11-26T07:06:23.904Z,19.10
2022-11-26T07:08:51.678Z,19.57
2022-11-26T07:11:19.221Z,20.53
2022-11-26T07:13:46.065Z,21.00
2022-11-26T07:16:13.471Z,21.80
2022-11-26T07:18:40.664Z,21.30
2022-11-26T07:21:12.793Z,20.57
2022-11-26T07:23:40.621Z,20.63
2022-11-26T07:26:09.002Z,19.30
2022-11-26T07:28:36.029Z,20.37
2022-11-26T07:31:07.405Z,20.90
2022-11-26T07:33:37.715Z,19.70
2022-11-26T07:36:07.430Z,20.57
2022-11-26T07:38:34.892Z,21.27
2022-11-26T07:41:07.064Z,19.90
2022-11-26T07:43:39.109Z,19.60
2022-11-26T07:46:08.513Z,21.27
2022-11-26T07:48:36.064Z,22.93
2022-11-26T07:51:03.233Z,21.63
2022-11-26T07:53:32.057Z,22.73
2022-11-26T07:55:58.823Z,20.73
2022-11-26T07:58:26.780Z,20.10
2022-11-26T08:00:54.909Z,20.37
2022-11-26T08:03:22.103Z,17.90
2022-11-26T08:05:48.930Z,19.17
2022-11-26T08:08:15.756Z,17.63
2022-11-26T08:10:42.608Z,17.07
2022-11-26T08:13:09.364Z,17.63
2022-11-26T08:15:37.644Z,17.80
2022-11-26T08:18:04.495Z,16.83
2022-11-26T08:20:31.347Z,17.60
2022-11-26T08:22:58.129Z,16.07
2022-11-26T08:25:24.884Z,16.37
2022-11-26T08:27:51.590Z,16.87
2022-11-26T08:30:18.500Z,15.70
2022-11-26T08:32:45.293Z,15.20
2022-11-26T08:35:12.550Z,15.90
2022-11-26T08:37:40.773Z,15.33
2022-11-26T08:40:09.633Z,15.43
2022-11-26T08:42:36.539Z,18.60
2022-11-26T08:45:03.525Z,18.47
2022-11-26T08:47:30.284Z,17.13
2022-11-26T08:49:56.982Z,17.73
2022-11-26T08:52:23.842Z,17.53
2022-11-26T08:54:50.675Z,17.60
2022-11-26T08:57:17.696Z,17.97
2022-11-26T08:59:44.490Z,17.70
2022-11-26T09:02:16.008Z,17.50
2022-11-26T09:04:45.266Z,17.33
2022-11-26T09:07:12.319Z,17.00
2022-11-26T09:09:39.255Z,17.43
2022-11-26T09:12:06.531Z,16.93
2022-11-26T09:14:39.745Z,16.90
2022-11-26T09:17:07.745Z,17.40
2022-11-26T09:19:34.519Z,16.57
2022-11-26T09:22:01.313Z,16.53
2022-11-26T09:24:28.040Z,16.27
2022-11-26T09:26:54.955Z,14.90
2022-11-26T09:29:23.395Z,16.40
2022-11-26T09:34:38.417Z,15.67
2022-11-26T09:37:05.494Z,16.13
2022-11-26T09:39:32.244Z,16.80
2022-11-26T09:42:16.687Z,16.33
2022-11-26T09:44:43.345Z,16.00
2022-11-26T09:47:17.284Z,16.50
2022-11-26T09:49:56.581Z,15.33
2022-11-26T09:52:28.597Z,14.83
2022-11-26T09:55:23.715Z,14.27
2022-11-26T09:58:10.729Z,15.47
2022-11-26T10:00:49.521Z,15.20
2022-11-26T10:03:24.654Z,15.00
2022-11-26T10:06:00.734Z,14.70
2022-11-26T10:08:30.212Z,15.37
2022-11-26T10:11:03.932Z,14.97
2022-11-26T10:14:08.089Z,15.13
2022-11-26T10:16:59.926Z,16.03
2022-11-26T10:19:55.071Z,15.57
2022-11-26T10:22:28.891Z,14.80
2022-11-26T10:24:58.107Z,16.07
2022-11-26T10:27:34.020Z,16.43
2022-11-26T10:30:18.700Z,16.17
2022-11-26T10:32:48.301Z,15.73
2022-11-26T10:35:24.965Z,16.50
2022-11-26T10:37:52.644Z,16.60
2022-11-26T10:40:28.225Z,15.90
2022-11-26T10:42:58.094Z,15.13
2022-11-26T10:45:35.476Z,16.07
2022-11-26T10:48:27.200Z,15.90
2022-11-26T10:51:13.572Z,15.60
2022-11-26T10:53:56.840Z,16.37
2022-11-26T10:56:37.106Z,14.83
2022-11-26T10:59:17.315Z,15.60
2022-11-26T11:01:44.451Z,14.50
2022-11-26T11:04:29.004Z,14.40
2022-11-26T11:06:56.303Z,14.80
2022-11-26T11:09:35.903Z,14.90
2022-11-26T11:12:11.993Z,15.80
2022-11-26T11:14:43.160Z,14.60
2022-11-26T11:17:41.049Z,14.97
2022-11-26T11:20:17.225Z,15.50
2022-11-26T11:22:45.854Z,16.10
2022-11-26T11:25:28.449Z,16.20
2022-11-26T11:28:11.738Z,14.97
2022-11-26T11:30:41.438Z,15.53
2022-11-26T11:33:23.047Z,15.13
2022-11-26T11:36:05.418Z,15.00
2022-11-26T11:39:12.332Z,15.40
2022-11-26T11:41:47.646Z,15.90
2022-11-26T11:44:26.347Z,15.93
2022-11-26T11:46:59.204Z,15.67
2022-11-26T11:50:04.125Z,16.43
2022-11-26T11:53:05.071Z,15.63
2022-11-26T11:55:44.760Z,17.13
2022-11-26T11:58:31.436Z,16.97
2022-11-26T12:01:36.350Z,16.43
2022-11-26T12:04:10.418Z,16.70
2022-11-26T12:06:51.621Z,16.63
2022-11-26T12:09:48.147Z,17.30
2022-11-26T12:12:35.980Z,16.83
2022-11-26T12:15:33.914Z,15.77
2022-11-26T12:18:06.537Z,17.70
2022-11-26T12:20:49.405Z,18.27
2022-11-26T12:23:24.460Z,18.87
2022-11-26T12:26:12.526Z,18.10
2022-11-26T12:28:51.039Z,18.97
2022-11-26T12:31:32.820Z,17.07
2022-11-26T12:34:10.002Z,17.53
2022-11-26T12:36:51.109Z,18.60
2022-11-26T12:39:53.212Z,17.30
2022-11-26T12:43:13.423Z,18.17
2022-11-26T12:45:51.257Z,17.50
2022-11-26T12:48:58.575Z,16.47
2022-11-26T12:51:46.499Z,16.50
2022-11-26T12:54:32.170Z,17.43
2022-11-26T12:57:02.357Z,18.10
2022-11-26T12:59:37.888Z,16.90
2022-11-26T13:02:23.173Z,16.67
2022-11-26T13:04:51.182Z,17.73
2022-11-26T13:07:42.563Z,16.63
2022-11-26T13:10:34.804Z,16.37
2022-11-26T13:13:16.171Z,16.43
2022-11-26T13:16:09.612Z,16.17
2022-11-26T13:18:41.585Z,16.30
2022-11-26T13:21:30.989Z,15.97
2022-11-26T13:24:19.556Z,16.93
2022-11-26T13:27:26.565Z,15.90
2022-11-26T13:30:13.788Z,16.40
2022-11-26T13:33:17.611Z,16.47
2022-11-26T13:35:59.441Z,16.87
2022-11-26T13:38:41.299Z,17.37
2022-11-26T13:41:17.005Z,17.10
2022-11-26T13:44:09.988Z,15.43
2022-11-26T13:46:46.650Z,15.87
2022-11-26T13:49:37.077Z,15.37
2022-11-26T13:52:17.889Z,15.90
2022-11-26T13:54:56.154Z,15.57
2022-11-26T13:57:31.297Z,14.87
2022-11-26T13:59:59.333Z,15.07
2022-11-26T14:02:38.119Z,16.83
2022-11-26T14:05:29.193Z,16.80
2022-11-26T14:08:34.394Z,17.67
2022-11-26T14:11:01.275Z,15.57
2022-11-26T14:13:28.188Z,16.20
2022-11-26T14:15:57.052Z,17.10
2022-11-26T14:18:48.752Z,16.23
2022-11-26T14:21:15.853Z,17.03
2022-11-26T14:23:43.814Z,16.03
2022-11-26T14:26:15.557Z,15.77
2022-11-26T14:28:42.300Z,15.53
2022-11-26T14:31:23.942Z,16.50
2022-11-26T14:33:55.883Z,15.40
2022-11-26T14:36:28.577Z,15.63
2022-11-26T14:39:13.383Z,15.33
2022-11-26T14:41:43.445Z,15.63
2022-11-26T14:44:15.664Z,15.53
2022-11-26T14:46:45.832Z,15.73
2022-11-26T14:49:22.250Z,16.13
2022-11-26T14:51:50.340Z,14.73
2022-11-26T14:54:43.123Z,15.20
2022-11-26T14:57:17.315Z,15.93
2022-11-26T15:00:00.071Z,16.60
2022-11-26T15:02:29.540Z,14.60
2022-11-26T15:05:00.599Z,15.43
2022-11-26T15:07:28.803Z,15.23
2022-11-26T15:10:26.022Z,15.50
2022-11-26T15:12:53.500Z,16.23
2022-11-26T15:15:24.350Z,16.13
2022-11-26T15:17:56.221Z,16.47
2022-11-26T15:20:24.634Z,15.63
2022-11-26T15:22:54.451Z,15.60
2022-11-26T15:25:27.803Z,16.37
2022-11-26T15:28:04.928Z,15.67
2022-11-26T15:30:35.166Z,15.60
2022-11-26T15:33:14.117Z,16.40
2022-11-26T15:35:43.726Z,15.40
2022-11-26T15:38:18.801Z,14.37
2022-11-26T15:40:51.708Z,14.67
2022-11-26T15:43:33.456Z,15.33
2022-11-26T15:46:12.506Z,15.23
2022-11-26T15:48:52.820Z,15.93
2022-11-26T15:51:37.616Z,14.73
2022-11-26T15:54:23.256Z,15.50
2022-11-26T15:56:56.551Z,15.33
2022-11-26T15:59:27.070Z,15.43
2022-11-26T16:01:54.341Z,16.03
2022-11-26T16:04:33.543Z,15.80
2022-11-26T16:07:09.482Z,15.23
2022-11-26T16:09:36.346Z,15.83
2022-11-26T16:12:03.248Z,16.20
2022-11-26T16:14:38.350Z,15.70
2022-11-26T16:17:16.722Z,17.23
2022-11-26T16:19:53.413Z,16.10
2022-11-26T16:22:26.959Z,15.97
2022-11-26T16:25:05.063Z,16.17
2022-11-26T16:27:33.086Z,17.07
2022-11-26T16:30:02.651Z,16.33
2022-11-26T16:32:29.577Z,15.90
2022-11-26T16:34:56.442Z,15.80
2022-11-26T16:37:31.700Z,16.13
2022-11-26T16:40:14.835Z,16.53
2022-11-26T16:42:41.600Z,16.70
2022-11-26T16:45:11.401Z,16.03
2022-11-26T16:47:43.605Z,16.13
2022-11-26T16:50:25.433Z,16.47
2022-11-26T16:52:56.025Z,15.73
2022-11-26T16:55:26.167Z,16.50
2022-11-26T16:57:59.854Z,16.33
2022-11-26T17:00:27.366Z,17.07
2022-11-26T17:02:54.905Z,16.97
2022-11-26T17:05:22.851Z,17.07
2022-11-26T17:07:53.647Z,16.57
2022-11-26T17:10:22.929Z,16.67
2022-11-26T17:12:50.178Z,16.93
2022-11-26T17:15:18.010Z,17.33
2022-11-26T17:17:45.414Z,19.60
2022-11-26T17:20:22.382Z,19.43
2022-11-26T17:22:49.592Z,18.47
2022-11-26T17:25:16.538Z,18.40
2022-11-26T17:27:44.062Z,19.93
2022-11-26T17:30:20.828Z,19.60
2022-11-26T17:32:47.854Z,19.13
2022-11-26T17:35:14.953Z,19.97
2022-11-26T17:37:42.008Z,20.33
2022-11-26T17:40:20.825Z,20.70
2022-11-26T17:42:48.190Z,18.60
2022-11-26T17:45:15.465Z,19.70
2022-11-26T17:47:42.772Z,19.10
2022-11-26T17:50:20.127Z,18.93
2022-11-26T17:52:48.689Z,19.47
2022-11-26T17:55:16.643Z,20.63
2022-11-26T17:57:43.889Z,19.43
2022-11-26T18:00:17.366Z,19.50
2022-11-26T18:02:46.231Z,19.77
2022-11-26T18:05:14.464Z,20.27
2022-11-26T18:07:41.710Z,20.43
2022-11-26T18:10:14.382Z,20.50
2022-11-26T18:12:41.507Z,20.13
2022-11-26T18:15:08.581Z,19.80
2022-11-26T18:17:35.381Z,19.33
2022-11-26T18:20:02.171Z,19.23
2022-11-26T18:22:30.373Z,19.43
2022-11-26T18:24:58.379Z,21.57
2022-11-26T18:27:27.613Z,19.07
2022-11-26T18:29:54.705Z,18.00
2022-11-26T18:32:21.653Z,20.60
2022-11-26T18:34:51.615Z,18.87
2022-11-26T18:37:19.003Z,19.47
2022-11-26T18:39:45.973Z,19.07
2022-11-26T18:45:00.708Z,18.80
2022-11-26T18:47:27.641Z,18.50
2022-11-26T18:49:54.472Z,18.93
2022-11-26T18:52:21.368Z,17.40
2022-11-26T18:54:48.184Z,18.23
2022-11-26T18:57:15.193Z,18.70
2022-11-26T18:59:42.523Z,17.50
2022-11-26T19:02:10.769Z,17.10
2022-11-26T19:04:39.057Z,17.90
2022-11-26T19:07:05.983Z,19.80
2022-11-26T19:09:32.840Z,20.03
2022-11-26T19:11:59.776Z,19.07
2022-11-26T19:14:26.883Z,18.97
2022-11-26T19:16:53.938Z,16.97
2022-11-26T19:19:21.629Z,16.97
2022-11-26T19:21:50.378Z,16.57
2022-11-26T19:24:17.452Z,16.27
2022-11-26T19:26:44.371Z,15.27
2022-11-26T19:29:12.737Z,14.83
2022-11-26T19:31:40.186Z,16.13
2022-11-26T19:34:11.560Z,15.30
2022-11-26T19:36:38.592Z,15.93
2022-11-26T19:39:06.986Z,15.33
2022-11-26T19:41:33.960Z,15.33
2022-11-26T19:44:03.627Z,14.70
2022-11-26T19:46:31.219Z,15.27
2022-11-26T19:48:58.382Z,16.67
2022-11-26T19:51:26.972Z,14.63
2022-11-26T19:53:55.824Z,13.13
2022-11-26T19:56:28.317Z,14.10
2022-11-26T19:58:57.978Z,14.37
2022-11-26T20:01:30.691Z,14.67
2022-11-26T20:04:06.847Z,14.60
2022-11-26T20:06:35.369Z,14.00
2022-11-26T20:09:04.321Z,14.57
2022-11-26T20:11:31.205Z,14.80
2022-11-26T20:13:58.715Z,15.43
2022-11-26T20:16:28.196Z,15.10
2022-11-26T20:18:55.816Z,14.63
2022-11-26T20:21:27.284Z,16.50
2022-11-26T20:23:57.142Z,15.07
2022-11-26T20:26:29.430Z,14.83
2022-11-26T20:29:00.045Z,14.30
2022-11-26T20:31:27.260Z,14.10
2022-11-26T20:33:54.764Z,13.83
2022-11-26T20:36:23.249Z,13.93
2022-11-26T20:38:55.085Z,14.77
2022-11-26T20:41:23.257Z,14.10
2022-11-26T20:43:55.075Z,13.50
2022-11-26T20:46:25.613Z,13.90
2022-11-26T20:48:53.068Z,13.37
2022-11-26T20:51:22.047Z,15.23
2022-11-26T20:53:50.909Z,15.63
2022-11-26T20:56:19.732Z,15.80
2022-11-26T20:58:46.951Z,17.43
2022-11-26T21:01:25.052Z,17.90
2022-11-26T21:03:52.901Z,18.23
2022-11-26T21:06:29.936Z,19.03
2022-11-26T21:09:02.493Z,17.27
2022-11-26T21:11:30.347Z,17.17
2022-11-26T21:13:58.957Z,15.93
2022-11-26T21:16:25.973Z,17.30
2022-11-26T21:18:54.825Z,15.87
2022-11-26T21:21:21.992Z,16.03
2022-11-26T21:23:48.969Z,16.03
2022-11-26T21:26:18.372Z,16.23
2022-11-26T21:28:49.819Z,14.33
2022-11-26T21:31:21.304Z,16.40
2022-11-26T21:33:54.664Z,15.27
2022-11-26T21:36:21.869Z,14.77
2022-11-26T21:38:49.988Z,15.73
2022-11-26T21:41:19.146Z,14.17
2022-11-26T21:43:48.460Z,13.53
2022-11-26T21:46:18.125Z,15.83
2022-11-26T21:48:45.130Z,18.03
2022-11-26T21:51:15.326Z,13.40
2022-11-26T21:53:43.036Z,17.90
2022-11-26T21:56:12.650Z,19.53
